Time;durP1;ratioP1;P1;durP2;ratioP2;P2;SDS_P1;SDS_P2;PMS_P1;PMS_P2;Temp;Humidity;BMP_temperature;BMP_pressure;BME280_temperature;BME280_humidity;BME280_pressure;Samples;Min_cycle;Max_cycle;Signal;HPM_P1;HPM_P2
2022/11/26 00:04:12;;;;;;;;;;;;;;;11.71;87.17;102022.28;7388871;19;19939;-88
2022/11/26 00:06:40;;;;;;;;;;;;;;;11.70;87.24;102020.59;7396287;19;19927;-87
2022/11/26 00:09:13;;;;;;;;;;;;;;;11.69;87.38;102026.00;7402143;19;20422;-86
2022/11/26 00:11:40;;;;;;;;;;;;;;;11.69;88.03;102023.34;7392311;19;21477;-86
2022/11/26 00:14:12;;;;;;;;;;;;;;;11.70;88.91;102020.59;7389960;19;19985;-87
2022/11/26 00:16:43;;;;;;;;;;;;;;;11.71;89.04;102019.63;7390023;19;19943;-87
2022/11/26 00:19:10;;;;;;;;;;;;;;;11.73;88.51;102019.56;7389219;19;19926;-87
2022/11/26 00:21:39;;;;;;;;;;;;;;;11.72;88.00;102012.56;7389902;19;20256;-86
2022/11/26 00:24:13;;;;;;;;;;;;;;;11.74;87.67;102016.75;7390907;19;19915;-86
2022/11/26 00:26:40;;;;;;;;;;;;;;;11.71;87.67;102013.53;7387687;19;19947;-86
2022/11/26 00:29:08;;;;;;;;;;;;;;;11.69;87.20;102012.81;7389882;19;19915;-88
2022/11/26 00:31:35;;;;;;;;;;;;;;;11.71;87.21;102024.06;7387512;19;19922;-86
2022/11/26 00:34:02;;;;;;;;;;;;;;;11.70;87.47;102027.66;7388984;19;19923;-86
2022/11/26 00:39:47;;;;;;;;;;;;;;;11.70;88.69;102019.75;7388099;19;19914;-86
2022/11/26 00:42:14;;;;;;;;;;;;;;;11.72;89.54;102009.94;7388184;19;19923;-86
2022/11/26 00:44:42;;;;;;;;;;;;;;;11.72;88.51;102020.47;7389551;19;19917;-86
2022/11/26 00:47:10;;;;;;;;;;;;;;;11.71;88.56;102022.28;7392032;19;19939;-86
2022/11/26 00:49:36;;;;;;;;;;;;;;;11.70;88.14;102015.31;7387268;19;20294;-85
2022/11/26 00:52:12;;;;;;;;;;;;;;;11.70;88.14;102017.13;7386383;19;19932;-85
2022/11/26 00:54:39;;;;;;;;;;;;;;;11.68;87.59;102016.44;7387353;19;19935;-87
2022/11/26 00:57:30;;;;;;;;;;;;;;;11.65;87.95;102019.31;7384215;19;19919;-87
2022/11/26 00:59:56;;;;;;;;;;;;;;;11.66;87.74;102028.91;7386226;19;19949;-86
2022/11/26 01:02:23;;;;;;;;;;;;;;;11.64;87.37;102030.81;7386655;19;19947;-87
2022/11/26 01:04:50;;;;;;;;;;;;;;;11.62;87.31;102030.97;7381152;19;19922;-87
2022/11/26 01:07:17;;;;;;;;;;;;;;;11.59;87.27;102039.13;7382831;19;19923;-86
2022/11/26 01:09:48;;;;;;;;;;;;;;;11.59;87.67;102029.41;7381842;19;19943;-87
2022/11/26 01:12:15;;;;;;;;;;;;;;;11.58;87.86;102038.28;7384742;19;19940;-86
2022/11/26 01:14:42;;;;;;;;;;;;;;;11.59;87.69;102039.97;7386902;19;19926;-87
2022/11/26 01:20:16;;;;;;;;;;;;;;;11.60;88.90;102030.25;7383171;19;19915;-85
2022/11/26 01:22:50;;;;;;;;;;;;;;;11.58;88.44;102032.19;7379711;19;19935;-87
2022/11/26 01:25:18;;;;;;;;;;;;;;;11.60;88.45;102038.16;7378642;19;19918;-87
2022/11/26 01:27:50;;;;;;;;;;;;;;;11.58;87.98;102037.44;7381878;19;19921;-86
2022/11/26 01:30:21;;;;;;;;;;;;;;;11.59;88.28;102037.31;7383327;19;19922;-85
2022/11/26 01:32:48;;;;;;;;;;;;;;;11.61;88.42;102044.28;7381773;19;20325;-86
2022/11/26 01:35:16;;;;;;;;;;;;;;;11.62;88.67;102032.78;7386681;19;20035;-86
2022/11/26 01:37:46;;;;;;;;;;;;;;;11.62;88.19;102028.34;7389477;19;20424;-86
2022/11/26 01:40:25;;;;;;;;;;;;;;;11.61;87.83;102017.91;7384202;19;19919;-86
2022/11/26 01:43:02;;;;;;;;;;;;;;;11.62;87.63;102024.88;7385600;19;20832;-86
2022/11/26 01:45:29;;;;;;;;;;;;;;;11.61;87.23;102029.28;7386182;19;19934;-87
2022/11/26 01:47:57;;;;;;;;;;;;;;;11.57;87.09;102036.63;7389094;19;19978;-86
2022/11/26 01:53:45;;;;;;;;;;;;;;;11.61;87.64;102036.38;7388049;19;20421;-85
2022/11/26 01:56:22;;;;;;;;;;;;;;;11.62;87.70;102027.50;7385342;19;19923;-85
2022/11/26 01:58:53;;;;;;;;;;;;;;;11.61;87.74;102029.28;7384904;19;20022;-86
2022/11/26 02:01:20;;;;;;;;;;;;;;;11.57;87.27;102026.09;7385475;19;19954;-85
2022/11/26 02:03:54;;;;;;;;;;;;;;;11.57;87.20;102027.91;7385404;19;19922;-87
2022/11/26 02:06:23;;;;;;;;;;;;;;;11.54;86.98;102020.22;7390293;19;20199;-87
2022/11/26 02:08:52;;;;;;;;;;;;;;;11.54;87.21;102026.34;7393521;19;19915;-86
2022/11/26 02:11:22;;;;;;;;;;;;;;;11.55;87.29;102032.44;7397491;19;20369;-87
2022/11/26 02:13:51;;;;;;;;;;;;;;;11.56;87.68;102028.84;7395068;19;19915;-87
2022/11/26 02:16:29;;;;;;;;;;;;;;;11.61;87.65;102031.09;7395584;19;19955;-87
2022/11/26 02:19:05;;;;;;;;;;;;;;;11.63;87.56;102037.09;7394553;19;20032;-86
2022/11/26 02:21:38;;;;;;;;;;;;;;;11.65;87.70;102030.69;7392375;19;20461;-86
2022/11/26 02:24:06;;;;;;;;;;;;;;;11.66;87.53;102037.66;7394818;19;19922;-86
2022/11/26 02:26:43;;;;;;;;;;;;;;;11.66;87.10;102044.72;7389914;19;19910;-85
2022/11/26 02:29:22;;;;;;;;;;;;;;;11.65;86.93;102037.78;7392651;19;19915;-85
2022/11/26 02:31:50;;;;;;;;;;;;;;;11.66;86.98;102042.94;7390565;19;19915;-84
2022/11/26 02:34:25;;;;;;;;;;;;;;;11.69;86.77;102044.44;7390595;19;20316;-85
2022/11/26 02:36:53;;;;;;;;;;;;;;;11.68;86.99;102053.34;7391731;19;19931;-85
2022/11/26 02:39:22;;;;;;;;;;;;;;;11.69;87.15;102044.44;7388603;19;19929;-87
2022/11/26 02:41:50;;;;;;;;;;;;;;;11.66;86.73;102047.34;7392098;19;19959;-86
2022/11/26 02:44:21;;;;;;;;;;;;;;;11.67;87.61;102044.59;7390370;19;19927;-87
2022/11/26 02:46:56;;;;;;;;;;;;;;;11.71;87.72;102058.34;7390699;19;19978;-85
2022/11/26 02:49:36;;;;;;;;;;;;;;;11.74;87.35;102056.31;7391761;19;19927;-85
2022/11/26 02:52:10;;;;;;;;;;;;;;;11.76;87.00;102053.56;7387052;19;19926;-86
2022/11/26 02:54:41;;;;;;;;;;;;;;;11.76;86.86;102061.47;7389252;19;19982;-86
2022/11/26 02:57:18;;;;;;;;;;;;;;;11.73;86.62;102062.59;7388660;19;19915;-85
2022/11/26 02:59:47;;;;;;;;;;;;;;;11.73;86.88;102065.22;7387699;19;20245;-85
2022/11/26 03:02:23;;;;;;;;;;;;;;;11.74;87.06;102071.28;7392029;19;19919;-86
2022/11/26 03:04:54;;;;;;;;;;;;;;;11.73;86.82;102064.38;7388786;19;19918;-87
2022/11/26 03:07:29;;;;;;;;;;;;;;;11.68;86.75;102064.75;7392961;19;19930;-86
2022/11/26 03:10:00;;;;;;;;;;;;;;;11.66;86.82;102053.47;7391592;19;19925;-86
2022/11/26 03:12:28;;;;;;;;;;;;;;;11.67;86.95;102060.41;7391285;19;19965;-85
2022/11/26 03:14:55;;;;;;;;;;;;;;;11.67;87.09;102068.34;7389628;19;19922;-85
2022/11/26 03:17:25;;;;;;;;;;;;;;;11.67;87.08;102064.84;7387714;19;19923;-85
2022/11/26 03:19:52;;;;;;;;;;;;;;;11.67;87.03;102062.22;7386704;19;19943;-86
2022/11/26 03:22:20;;;;;;;;;;;;;;;11.67;87.67;102056.94;7392582;19;19924;-85
2022/11/26 03:24:47;;;;;;;;;;;;;;;11.71;87.78;102053.06;7389781;19;19983;-86
2022/11/26 03:27:14;;;;;;;;;;;;;;;11.73;87.66;102056.47;7386514;19;19926;-86
2022/11/26 03:29:42;;;;;;;;;;;;;;;11.70;87.64;102057.50;7389214;19;19910;-86
2022/11/26 03:32:09;;;;;;;;;;;;;;;11.70;87.80;102054.03;7390998;19;20005;-86
2022/11/26 03:34:37;;;;;;;;;;;;;;;11.68;87.48;102050.72;7390443;19;19938;-85
2022/11/26 03:37:05;;;;;;;;;;;;;;;11.68;87.81;102053.34;7390102;19;19919;-86
2022/11/26 03:39:33;;;;;;;;;;;;;;;11.67;87.97;102054.31;7391285;19;19921;-84
2022/11/26 03:42:01;;;;;;;;;;;;;;;11.67;88.41;102049.88;7396035;19;19910;-86
2022/11/26 03:44:29;;;;;;;;;;;;;;;11.67;88.37;102039.34;7398340;19;19943;-84
2022/11/26 03:46:56;;;;;;;;;;;;;;;11.66;88.14;102050.00;7392995;19;19927;-86
2022/11/26 03:49:23;;;;;;;;;;;;;;;11.63;88.27;102040.53;7395279;19;19915;-85
2022/11/26 03:51:50;;;;;;;;;;;;;;;11.60;88.57;102035.53;7396725;19;19918;-85
2022/11/26 03:57:37;;;;;;;;;;;;;;;11.64;89.21;102036.09;7397490;19;19915;-85
2022/11/26 04:00:07;;;;;;;;;;;;;;;11.64;88.93;102036.09;7390068;19;19915;-86
2022/11/26 04:02:40;;;;;;;;;;;;;;;11.65;89.40;102035.13;7400729;19;20022;-86
2022/11/26 04:05:11;;;;;;;;;;;;;;;11.68;89.45;102038.38;7405924;19;19922;-85
2022/11/26 04:07:50;;;;;;;;;;;;;;;11.72;89.89;102042.41;7405238;19;19918;-86
2022/11/26 04:10:18;;;;;;;;;;;;;;;11.78;90.21;102041.09;7407198;19;20065;-86
2022/11/26 04:12:48;;;;;;;;;;;;;;;11.80;89.91;102063.72;7409907;19;19923;-85
2022/11/26 04:15:50;;;;;;;;;;;;;;;11.85;89.82;102047.50;7417597;19;19911;-87
2022/11/26 04:18:30;;;;;;;;;;;;;;;11.86;89.56;102047.38;7406011;19;19934;-86
2022/11/26 04:21:09;;;;;;;;;;;;;;;11.85;89.29;102040.44;7402135;19;20562;-86
2022/11/26 04:23:41;;;;;;;;;;;;;;;11.85;89.31;102039.59;7403213;19;19911;-85
2022/11/26 04:32:45;;;;;;;;;;;;;;;11.82;89.37;102034.59;7399522;19;19986;-85
2022/11/26 04:35:16;;;;;;;;;;;;;;;11.85;89.53;102036.94;7396721;19;20638;-85
2022/11/26 04:37:44;;;;;;;;;;;;;;;11.89;89.86;102033.91;7397519;19;19918;-86
2022/11/26 04:40:20;;;;;;;;;;;;;;;11.91;89.46;102034.63;7398108;19;20246;-84
2022/11/26 04:42:47;;;;;;;;;;;;;;;11.90;89.16;102037.38;7390555;19;20477;-86
2022/11/26 04:51:52;;;;;;;;;;;;;;;11.94;89.45;102025.59;7389713;19;20015;-86
2022/11/26 04:54:22;;;;;;;;;;;;;;;11.96;89.62;102031.59;7388191;19;19925;-85
2022/11/26 04:56:49;;;;;;;;;;;;;;;11.97;89.56;102034.09;7396784;19;19915;-86
2022/11/26 04:59:17;;;;;;;;;;;;;;;11.96;89.53;102039.50;7383932;19;20308;-86
2022/11/26 05:01:44;;;;;;;;;;;;;;;11.93;89.10;102029.22;7382765;19;19934;-85
2022/11/26 05:04:11;;;;;;;;;;;;;;;11.93;89.48;102034.50;7382470;19;20028;-85
2022/11/26 05:06:38;;;;;;;;;;;;;;;11.93;89.75;102035.34;7381006;19;19923;-85
2022/11/26 05:09:06;;;;;;;;;;;;;;;11.94;89.80;102049.34;7386226;19;19925;-84
2022/11/26 05:11:33;;;;;;;;;;;;;;;11.94;89.67;102051.97;7384857;19;21458;-86
2022/11/26 05:14:00;;;;;;;;;;;;;;;11.93;89.60;102040.63;7381572;19;19985;-85
2022/11/26 05:16:27;;;;;;;;;;;;;;;11.94;89.79;102044.06;7388391;19;19923;-85
2022/11/26 05:18:55;;;;;;;;;;;;;;;11.95;89.53;102043.94;7392757;19;20730;-86
2022/11/26 05:21:22;;;;;;;;;;;;;;;11.96;89.60;102045.63;7390162;19;19919;-85
2022/11/26 05:23:49;;;;;;;;;;;;;;;11.96;89.67;102053.53;7387121;19;19915;-84
2022/11/26 05:26:18;;;;;;;;;;;;;;;11.99;89.47;102053.25;7387427;19;19926;-83
2022/11/26 05:28:45;;;;;;;;;;;;;;;11.99;89.61;102055.06;7391237;19;19939;-85
2022/11/26 05:31:12;;;;;;;;;;;;;;;11.99;89.79;102055.91;7384885;19;19918;-85
2022/11/26 05:33:39;;;;;;;;;;;;;;;11.98;89.77;102054.25;7381534;19;19919;-86
2022/11/26 05:39:25;;;;;;;;;;;;;;;12.00;89.79;102047.03;7392541;19;19921;-85
2022/11/26 05:41:52;;;;;;;;;;;;;;;12.00;89.70;102035.63;7392149;19;20407;-85
2022/11/26 05:44:19;;;;;;;;;;;;;;;12.00;90.29;102027.72;7392213;19;19922;-85
2022/11/26 05:46:47;;;;;;;;;;;;;;;11.99;90.38;102029.53;7391929;19;19922;-85
2022/11/26 05:49:14;;;;;;;;;;;;;;;12.00;90.21;102033.00;7392582;19;19926;-85
2022/11/26 05:51:41;;;;;;;;;;;;;;;11.99;90.41;102029.53;7391359;19;19919;-87
2022/11/26 05:54:11;;;;;;;;;;;;;;;11.98;90.16;102041.06;7390661;19;19935;-83
2022/11/26 05:56:38;;;;;;;;;;;;;;;11.97;90.21;102043.81;7390505;19;19930;-86
2022/11/26 05:59:06;;;;;;;;;;;;;;;11.98;90.02;102046.34;7386450;19;19948;-86
2022/11/26 06:01:33;;;;;;;;;;;;;;;11.98;90.23;102056.88;7389577;19;20376;-85
2022/11/26 06:07:19;;;;;;;;;;;;;;;12.00;90.39;102052.28;7391698;19;19926;-85
2022/11/26 06:09:46;;;;;;;;;;;;;;;11.99;90.03;102040.06;7390512;19;19929;-86
2022/11/26 06:12:13;;;;;;;;;;;;;;;12.02;90.51;102052.19;7392582;19;19914;-85
2022/11/26 06:14:41;;;;;;;;;;;;;;;12.01;90.60;102053.13;7390963;19;19921;-85
2022/11/26 06:17:10;;;;;;;;;;;;;;;12.00;90.48;102064.66;7389714;19;20261;-85
2022/11/26 06:19:39;;;;;;;;;;;;;;;11.98;90.76;102062.16;7386909;19;19919;-86
2022/11/26 06:22:09;;;;;;;;;;;;;;;11.98;90.38;102061.31;7387573;19;19923;-85
2022/11/26 06:24:36;;;;;;;;;;;;;;;11.96;90.42;102055.34;7386583;19;20431;-86
2022/11/26 06:27:04;;;;;;;;;;;;;;;11.96;90.42;102050.06;7385971;19;19919;-86
2022/11/26 06:29:31;;;;;;;;;;;;;;;11.96;90.55;102044.78;7387901;19;20476;-85
2022/11/26 06:31:59;;;;;;;;;;;;;;;11.96;90.71;102045.63;7393182;19;19937;-85
2022/11/26 06:34:27;;;;;;;;;;;;;;;11.98;90.73;102040.22;7392030;19;20407;-85
2022/11/26 06:36:59;;;;;;;;;;;;;;;12.01;90.75;102037.31;7393861;19;19923;-85
2022/11/26 06:39:27;;;;;;;;;;;;;;;12.00;90.77;102036.47;7389822;19;19933;-86
2022/11/26 06:41:57;;;;;;;;;;;;;;;12.01;91.04;102039.94;7394617;19;19914;-85
2022/11/26 06:44:24;;;;;;;;;;;;;;;12.01;90.26;102042.59;7391570;19;19929;-87
2022/11/26 06:46:52;;;;;;;;;;;;;;;11.99;90.32;102052.41;7390481;19;19974;-85
2022/11/26 06:49:21;;;;;;;;;;;;;;;11.99;90.28;102052.41;7394955;19;19919;-86
2022/11/26 06:51:48;;;;;;;;;;;;;;;12.00;90.31;102054.09;7393266;19;20344;-84
2022/11/26 06:54:15;;;;;;;;;;;;;;;11.97;90.22;102060.47;7390548;19;19986;-85
2022/11/26 06:56:43;;;;;;;;;;;;;;;11.94;90.06;102055.44;7389361;19;19914;-85
2022/11/26 06:59:12;;;;;;;;;;;;;;;11.93;90.04;102059.09;7388288;19;20277;-84
2022/11/26 07:01:42;;;;;;;;;;;;;;;11.94;90.26;102059.88;7389565;19;19927;-85
2022/11/26 07:04:12;;;;;;;;;;;;;;;11.95;89.93;102062.41;7388884;19;19984;-86
2022/11/26 07:09:50;;;;;;;;;;;;;;;11.96;89.76;102079.06;7391473;19;19939;-86
2022/11/26 07:12:20;;;;;;;;;;;;;;;11.97;89.77;102071.03;7391270;19;19918;-85
2022/11/26 07:14:47;;;;;;;;;;;;;;;11.97;89.96;102071.03;7395919;19;19919;-86
2022/11/26 07:17:17;;;;;;;;;;;;;;;11.96;89.98;102061.44;7392191;19;19923;-86
2022/11/26 07:19:48;;;;;;;;;;;;;;;11.97;89.94;102067.56;7387561;19;19931;-86
2022/11/26 07:22:17;;;;;;;;;;;;;;;11.98;89.78;102070.06;7391411;19;19919;-86
2022/11/26 07:24:46;;;;;;;;;;;;;;;11.97;89.32;102065.75;7386810;19;19907;-86
2022/11/26 07:27:23;;;;;;;;;;;;;;;11.97;89.39;102067.56;7388129;19;19930;-85
2022/11/26 07:29:56;;;;;;;;;;;;;;;11.97;89.54;102070.19;7386475;19;19935;-85
2022/11/26 07:32:25;;;;;;;;;;;;;;;11.98;89.80;102063.97;7386747;19;19919;-85
2022/11/26 07:34:55;;;;;;;;;;;;;;;11.99;89.83;102055.91;7386213;19;19930;-86
2022/11/26 07:37:27;;;;;;;;;;;;;;;11.99;89.32;102050.63;7387543;19;19915;-85
2022/11/26 07:39:58;;;;;;;;;;;;;;;12.00;89.24;102046.19;7387993;19;19931;-85
2022/11/26 07:42:30;;;;;;;;;;;;;;;11.99;89.18;102037.44;7390779;19;19930;-85
2022/11/26 07:45:00;;;;;;;;;;;;;;;11.97;89.15;102047.28;7391784;19;19998;-84
2022/11/26 07:47:28;;;;;;;;;;;;;;;11.99;89.56;102055.06;7390867;19;19986;-85
2022/11/26 07:49:55;;;;;;;;;;;;;;;11.99;88.89;102045.34;7388353;19;19914;-85
2022/11/26 07:52:23;;;;;;;;;;;;;;;11.98;88.98;102043.69;7386492;19;19919;-85
2022/11/26 07:54:55;;;;;;;;;;;;;;;11.96;88.87;102042.97;7385330;19;20353;-85
2022/11/26 07:57:24;;;;;;;;;;;;;;;11.95;88.84;102035.19;7388572;19;20020;-85
2022/11/26 07:59:53;;;;;;;;;;;;;;;11.94;89.00;102034.34;7385761;19;20540;-85
2022/11/26 08:02:24;;;;;;;;;;;;;;;11.94;89.09;102038.78;7389273;19;19954;-87
2022/11/26 08:05:00;;;;;;;;;;;;;;;11.95;89.21;102045.75;7388366;19;19943;-85
2022/11/26 08:07:35;;;;;;;;;;;;;;;11.95;89.25;102036.03;7389471;19;20523;-86
2022/11/26 08:10:09;;;;;;;;;;;;;;;11.97;89.22;102039.38;7385455;19;19918;-88
2022/11/26 08:12:36;;;;;;;;;;;;;;;11.99;88.98;102036.59;7389055;19;19918;-87
2022/11/26 08:15:03;;;;;;;;;;;;;;;12.00;89.06;102036.47;7388573;19;19915;-84
2022/11/26 08:17:31;;;;;;;;;;;;;;;12.02;89.01;102038.97;7384925;19;19939;-86
2022/11/26 08:19:58;;;;;;;;;;;;;;;12.02;88.77;102046.91;7386155;19;19927;-85
2022/11/26 08:22:25;;;;;;;;;;;;;;;12.04;88.87;102039.66;7384791;19;20554;-86
2022/11/26 08:24:52;;;;;;;;;;;;;;;12.06;88.72;102040.38;7383068;19;20395;-86
2022/11/26 08:27:19;;;;;;;;;;;;;;;12.09;88.92;102041.94;7386524;19;19927;-86
2022/11/26 08:29:47;;;;;;;;;;;;;;;12.13;89.29;102038.06;7390223;19;19919;-87
2022/11/26 08:32:14;;;;;;;;;;;;;;;12.13;88.99;102041.53;7386726;19;19919;-85
2022/11/26 08:34:42;;;;;;;;;;;;;;;12.15;89.22;102038.75;7389008;19;21062;-86
2022/11/26 08:37:09;;;;;;;;;;;;;;;12.15;89.16;102047.50;7387731;19;19926;-85
2022/11/26 08:39:37;;;;;;;;;;;;;;;12.17;89.07;102035.03;7387992;19;20222;-86
2022/11/26 08:42:04;;;;;;;;;;;;;;;12.18;89.47;102036.69;7386619;19;20357;-87
2022/11/26 08:44:32;;;;;;;;;;;;;;;12.20;89.52;102040.03;7388436;19;19915;-86
2022/11/26 08:47:03;;;;;;;;;;;;;;;12.21;89.38;102039.06;7385501;19;19910;-85
2022/11/26 08:49:32;;;;;;;;;;;;;;;12.22;89.14;102034.63;7387185;19;20613;-85
2022/11/26 08:52:00;;;;;;;;;;;;;;;12.24;89.50;102025.59;7385144;19;19915;-85
2022/11/26 08:57:47;;;;;;;;;;;;;;;12.27;88.98;102019.22;7388249;19;19915;-85
2022/11/26 09:00:14;;;;;;;;;;;;;;;12.28;88.66;102008.53;7385551;19;20551;-85
2022/11/26 09:02:41;;;;;;;;;;;;;;;12.29;88.34;102010.19;7385883;19;20258;-85
2022/11/26 09:05:10;;;;;;;;;;;;;;;12.31;88.36;102015.34;7382823;19;19918;-86
2022/11/26 09:07:37;;;;;;;;;;;;;;;12.31;88.41;102016.19;7383593;19;19922;-86
2022/11/26 09:10:14;;;;;;;;;;;;;;;12.34;88.19;102041.47;7381681;19;20571;-85
2022/11/26 09:12:41;;;;;;;;;;;;;;;12.37;88.22;102043.84;7388627;19;19923;-86
2022/11/26 09:15:09;;;;;;;;;;;;;;;12.41;88.35;102046.06;7383860;19;19921;-86
2022/11/26 09:17:36;;;;;;;;;;;;;;;12.45;88.46;102036.06;7386497;19;20377;-86
2022/11/26 09:20:05;;;;;;;;;;;;;;;12.52;88.77;102044.28;7385674;19;20341;-86
2022/11/26 09:22:33;;;;;;;;;;;;;;;12.58;89.15;102041.94;7386446;19;20673;-86
2022/11/26 09:25:00;;;;;;;;;;;;;;;12.63;89.02;102033.63;7384608;19;19930;-85
2022/11/26 09:27:29;;;;;;;;;;;;;;;12.66;88.82;102036.81;7385399;19;19927;-86
2022/11/26 09:29:56;;;;;;;;;;;;;;;12.70;88.66;102026.81;7386279;19;19911;-86
2022/11/26 09:32:26;;;;;;;;;;;;;;;12.71;88.78;102031.13;7386315;19;20322;-86
2022/11/26 09:34:59;;;;;;;;;;;;;;;12.75;89.00;102045.72;7395139;19;20242;-85
2022/11/26 09:37:27;;;;;;;;;;;;;;;12.78;89.06;102042.81;7389095;19;20299;-86
2022/11/26 09:39:55;;;;;;;;;;;;;;;12.81;89.51;102042.53;7389851;19;19923;-86
2022/11/26 09:42:26;;;;;;;;;;;;;;;12.85;89.57;102049.22;7387353;19;19918;-85
2022/11/26 09:45:01;;;;;;;;;;;;;;;12.86;89.41;102048.25;7387166;19;19926;-87
2022/11/26 09:47:36;;;;;;;;;;;;;;;12.90;89.65;102048.81;7385429;19;19922;-85
2022/11/26 09:50:06;;;;;;;;;;;;;;;12.92;89.87;102045.06;7397951;19;19927;-85
2022/11/26 09:52:37;;;;;;;;;;;;;;;12.95;89.96;102046.59;7388646;19;19947;-88
2022/11/26 09:55:13;;;;;;;;;;;;;;;12.98;89.96;102033.09;7384741;19;19954;-85
2022/11/26 09:57:51;;;;;;;;;;;;;;;13.02;89.79;102027.41;7386750;19;19919;-85
2022/11/26 10:00:27;;;;;;;;;;;;;;;13.04;89.77;102022.81;7391481;19;19983;-85
2022/11/26 10:02:57;;;;;;;;;;;;;;;13.07;89.76;102038.38;7390766;19;19919;-86
2022/11/26 10:05:44;;;;;;;;;;;;;;;13.14;89.65;102042.19;7389723;19;19918;-85
2022/11/26 10:08:35;;;;;;;;;;;;;;;13.19;89.44;102025.91;7386423;19;19942;-86
2022/11/26 10:11:41;;;;;;;;;;;;;;;13.25;90.07;102033.28;7391145;19;19942;-86
2022/11/26 10:14:09;;;;;;;;;;;;;;;13.28;89.63;102047.03;7385561;19;19923;-86
2022/11/26 10:16:44;;;;;;;;;;;;;;;13.30;89.34;102033.69;7389389;19;19918;-86
2022/11/26 10:19:20;;;;;;;;;;;;;;;13.33;89.12;102038.69;7395317;19;19923;-86
2022/11/26 10:21:51;;;;;;;;;;;;;;;13.37;89.23;102026.84;7392924;19;20266;-86
2022/11/26 10:27:47;;;;;;;;;;;;;;;13.50;89.28;102034.50;7399449;19;19921;-86
2022/11/26 10:30:19;;;;;;;;;;;;;;;13.51;88.69;102013.19;7397630;19;19926;-86
2022/11/26 10:32:48;;;;;;;;;;;;;;;13.55;88.61;102009.31;7393715;19;20252;-86
2022/11/26 10:35:16;;;;;;;;;;;;;;;13.59;88.89;102015.97;7395886;19;19919;-86
2022/11/26 10:37:44;;;;;;;;;;;;;;;13.61;88.51;101998.13;7397085;19;19919;-85
2022/11/26 10:40:18;;;;;;;;;;;;;;;13.67;88.51;101994.06;7394866;19;19982;-86
2022/11/26 10:42:55;;;;;;;;;;;;;;;13.70;88.25;101992.00;7393891;19;20416;-85
2022/11/26 10:45:26;;;;;;;;;;;;;;;13.74;88.36;101994.34;7389172;19;20337;-86
2022/11/26 10:48:09;;;;;;;;;;;;;;;13.76;88.10;101987.94;7383116;19;19925;-86
2022/11/26 10:50:37;;;;;;;;;;;;;;;13.82;87.87;101984.69;7388329;19;20286;-87
2022/11/26 10:53:16;;;;;;;;;;;;;;;13.88;87.57;101988.56;7397161;19;20576;-86
2022/11/26 10:55:43;;;;;;;;;;;;;;;13.90;87.44;101987.47;7391884;19;19914;-86
2022/11/26 10:58:15;;;;;;;;;;;;;;;13.93;86.95;101983.69;7386595;19;19919;-85
2022/11/26 11:00:53;;;;;;;;;;;;;;;13.98;86.98;101976.13;7387841;19;19919;-85
2022/11/26 11:03:22;;;;;;;;;;;;;;;13.97;86.13;101983.25;7385134;19;19930;-85
2022/11/26 11:06:12;;;;;;;;;;;;;;;14.01;86.67;101982.00;7398290;19;19926;-86
2022/11/26 11:08:40;;;;;;;;;;;;;;;14.05;86.62;101980.72;7392524;19;20516;-86
2022/11/26 11:11:18;;;;;;;;;;;;;;;14.08;86.29;101995.44;7394007;19;19915;-88
2022/11/26 11:14:21;;;;;;;;;;;;;;;14.09;85.87;101981.25;7401865;19;20292;-85
2022/11/26 11:16:55;;;;;;;;;;;;;;;14.17;86.38;101985.81;7405576;19;19925;-86
2022/11/26 11:22:35;;;;;;;;;;;;;;;14.23;85.41;101978.09;7400492;19;19942;-86
2022/11/26 11:25:04;;;;;;;;;;;;;;;14.29;85.37;101984.63;7397507;19;19910;-86
2022/11/26 11:27:38;;;;;;;;;;;;;;;14.30;84.96;101983.63;7400124;19;19980;-86
2022/11/26 11:30:20;;;;;;;;;;;;;;;14.26;84.70;101972.53;7398347;19;19938;-85
2022/11/26 11:32:49;;;;;;;;;;;;;;;14.30;85.31;101965.09;7400047;19;19943;-85
2022/11/26 11:35:25;;;;;;;;;;;;;;;14.32;85.23;101971.94;7396483;19;20363;-82
2022/11/26 11:37:56;;;;;;;;;;;;;;;14.31;84.38;101966.78;7389315;19;19923;-86
2022/11/26 11:40:26;;;;;;;;;;;;;;;14.31;84.31;101964.13;7397263;19;19926;-88
2022/11/26 11:42:58;;;;;;;;;;;;;;;14.29;83.79;101969.56;7397308;19;19928;-87
2022/11/26 11:45:39;;;;;;;;;;;;;;;14.26;83.38;101961.94;7399971;19;19971;-85
2022/11/26 11:48:30;;;;;;;;;;;;;;;14.23;83.75;101953.44;7393168;19;19923;-85
2022/11/26 11:51:20;;;;;;;;;;;;;;;14.25;84.13;101948.84;7402189;19;20428;-84
2022/11/26 11:54:25;;;;;;;;;;;;;;;14.25;83.50;101948.84;7405659;19;19911;-87
2022/11/26 11:57:14;;;;;;;;;;;;;;;14.24;83.14;101948.00;7399273;19;19926;-87
2022/11/26 12:00:09;;;;;;;;;;;;;;;14.22;82.76;101939.34;7394658;19;19915;-85
2022/11/26 12:02:44;;;;;;;;;;;;;;;14.26;83.33;101937.25;7396623;19;19911;-86
2022/11/26 12:05:15;;;;;;;;;;;;;;;14.29;83.40;101935.16;7392568;19;19943;-85
2022/11/26 12:07:55;;;;;;;;;;;;;;;14.32;82.46;101934.03;7389964;19;19922;-86
2022/11/26 12:10:28;;;;;;;;;;;;;;;14.31;82.05;101930.53;7396852;19;20285;-86
2022/11/26 12:13:01;;;;;;;;;;;;;;;14.30;81.86;101925.38;7392436;19;19919;-85
2022/11/26 12:15:44;;;;;;;;;;;;;;;14.29;81.76;101926.38;7387640;19;19927;-86
2022/11/26 12:18:25;;;;;;;;;;;;;;;14.32;81.76;101926.09;7392312;19;20353;-86
2022/11/26 12:20:56;;;;;;;;;;;;;;;14.33;81.42;101917.13;7385979;19;19914;-86
2022/11/26 12:23:26;;;;;;;;;;;;;;;14.37;81.65;101922.03;7386107;19;19930;-87
2022/11/26 12:26:05;;;;;;;;;;;;;;;14.38;81.24;101912.25;7390173;19;19914;-85
2022/11/26 12:28:36;;;;;;;;;;;;;;;14.40;81.08;101923.53;7385238;19;19927;-85
2022/11/26 12:31:03;;;;;;;;;;;;;;;14.42;80.91;101919.78;7384222;19;19960;-85
2022/11/26 12:33:32;;;;;;;;;;;;;;;14.43;79.98;101917.94;7385474;19;20077;-87
2022/11/26 12:36:04;;;;;;;;;;;;;;;14.44;79.83;101917.78;7388232;19;19942;-84
2022/11/26 12:38:35;;;;;;;;;;;;;;;14.44;79.95;101916.94;7385189;19;19922;-87
2022/11/26 12:41:06;;;;;;;;;;;;;;;14.46;80.49;101928.25;7382106;19;19919;-85
2022/11/26 12:43:49;;;;;;;;;;;;;;;14.49;80.50;101919.97;7383316;19;19929;-85
2022/11/26 12:46:18;;;;;;;;;;;;;;;14.53;79.90;101918.69;7382615;19;19978;-86
2022/11/26 12:48:49;;;;;;;;;;;;;;;14.52;79.17;101909.94;7384380;19;19914;-86
2022/11/26 12:51:23;;;;;;;;;;;;;;;14.50;79.44;101909.25;7384349;19;19923;-87
2022/11/26 12:53:51;;;;;;;;;;;;;;;14.49;79.01;101901.44;7386353;19;19923;-87
2022/11/26 12:56:19;;;;;;;;;;;;;;;14.50;79.02;101905.75;7384120;19;19990;-85
2022/11/26 12:58:46;;;;;;;;;;;;;;;14.48;78.72;101907.72;7385945;19;19950;-85
2022/11/26 13:01:15;;;;;;;;;;;;;;;14.50;79.48;101897.81;7386014;19;19918;-87
2022/11/26 13:03:42;;;;;;;;;;;;;;;14.49;78.91;101890.84;7383280;19;19926;-88
2022/11/26 13:06:16;;;;;;;;;;;;;;;14.50;78.63;101890.69;7379933;19;19960;-88
2022/11/26 13:08:47;;;;;;;;;;;;;;;14.50;78.43;101896.00;7381030;19;19918;-87
2022/11/26 13:11:25;;;;;;;;;;;;;;;14.48;77.95;101890.00;7378452;19;19936;-86
2022/11/26 13:14:01;;;;;;;;;;;;;;;14.49;78.17;101888.19;7380725;19;19915;-86
2022/11/26 13:16:36;;;;;;;;;;;;;;;14.50;78.50;101888.06;7383556;19;19932;-86
2022/11/26 13:19:12;;;;;;;;;;;;;;;14.49;78.57;101888.19;7381845;19;20360;-87
2022/11/26 13:21:54;;;;;;;;;;;;;;;14.45;78.04;101890.31;7383299;19;19963;-87
2022/11/26 13:24:31;;;;;;;;;;;;;;;14.45;78.13;101878.91;7386029;19;19926;-87
2022/11/26 13:27:11;;;;;;;;;;;;;;;14.45;78.83;101884.19;7385335;19;20351;-86
2022/11/26 13:29:48;;;;;;;;;;;;;;;14.48;79.06;101881.22;7382944;19;19926;-84
2022/11/26 13:32:27;;;;;;;;;;;;;;;14.51;78.61;101883.59;7387755;19;19918;-86
2022/11/26 13:35:05;;;;;;;;;;;;;;;14.50;78.64;101877.47;7385862;19;19943;-87
2022/11/26 13:37:41;;;;;;;;;;;;;;;14.50;78.80;101871.31;7386774;19;19923;-86
2022/11/26 13:40:12;;;;;;;;;;;;;;;14.51;78.87;101875.66;7385525;19;19923;-87
2022/11/26 13:42:47;;;;;;;;;;;;;;;14.51;79.14;101863.25;7386171;19;19929;-87
2022/11/26 13:45:15;;;;;;;;;;;;;;;14.52;79.00;101861.44;7387721;19;19938;-87